createdAt,value
2023-02-08T00:01:36.861Z,15.6
2023-02-08T00:04:24.911Z,20.1
2023-02-08T00:07:12.335Z,17.5
2023-02-08T00:09:59.841Z,16.8
2023-02-08T00:12:49.775Z,17.1
2023-02-08T00:15:37.305Z,15.7
2023-02-08T00:18:27.545Z,17.3
2023-02-08T00:21:15.044Z,16.3
2023-02-08T00:24:03.395Z,17.4
2023-02-08T00:26:51.427Z,15.2
2023-02-08T00:29:38.834Z,16.4
2023-02-08T00:32:26.183Z,17
2023-02-08T00:35:13.470Z,15.8
2023-02-08T00:38:00.965Z,16.7
2023-02-08T00:40:48.775Z,16.9
2023-02-08T00:43:36.153Z,16.5
2023-02-08T00:46:23.771Z,16.7
2023-02-08T00:49:12.028Z,17.4
2023-02-08T00:51:59.616Z,16
2023-02-08T00:54:47.060Z,14.7
2023-02-08T00:57:34.443Z,15
2023-02-08T01:00:22.205Z,14.5
2023-02-08T01:03:09.496Z,14.4
2023-02-08T01:05:57.460Z,15.3
2023-02-08T01:08:46.436Z,15.5
2023-02-08T01:11:33.865Z,13.8
2023-02-08T01:14:21.260Z,14.2
2023-02-08T01:17:09.354Z,13
2023-02-08T01:19:56.709Z,14.1
2023-02-08T01:22:44.082Z,12.6
2023-02-08T01:25:31.751Z,13.6
2023-02-08T01:28:19.119Z,14.4
2023-02-08T01:31:06.617Z,14.7
2023-02-08T01:33:56.649Z,10.1
2023-02-08T01:36:44.984Z,14.8
2023-02-08T01:39:32.358Z,16.9
2023-02-08T01:42:20.076Z,18.1
2023-02-08T01:45:07.878Z,18.8
2023-02-08T01:48:12.447Z,18.3
2023-02-08T01:51:04.102Z,18.2
2023-02-08T01:53:56.062Z,19
2023-02-08T01:56:45.906Z,18.7
2023-02-08T01:59:34.430Z,19.6
2023-02-08T02:02:28.123Z,21.3
2023-02-08T02:05:16.202Z,21.6
2023-02-08T02:08:05.044Z,24.3
2023-02-08T02:10:52.877Z,24
2023-02-08T02:13:40.256Z,23.9
2023-02-08T02:16:29.135Z,25.2
2023-02-08T02:19:17.045Z,26.6
2023-02-08T02:22:16.740Z,24.5
2023-02-08T02:25:29.254Z,23.2
2023-02-08T02:28:39.223Z,27.3
2023-02-08T02:31:58.210Z,26.5
2023-02-08T02:34:56.570Z,27.4
2023-02-08T02:37:49.962Z,27.6
2023-02-08T02:40:48.410Z,25.3
2023-02-08T02:43:45.374Z,25
2023-02-08T02:46:42.020Z,24.7
2023-02-08T02:49:36.437Z,26.3
2023-02-08T02:52:33.021Z,25.4
2023-02-08T02:55:27.736Z,34.8
2023-02-08T02:58:19.736Z,39.3
2023-02-08T03:01:09.981Z,28.3
2023-02-08T03:03:58.095Z,26
2023-02-08T03:06:45.701Z,31.5
2023-02-08T03:09:48.728Z,33.7
2023-02-08T03:12:47.674Z,28.5
2023-02-08T03:15:45.815Z,29.7
2023-02-08T03:18:46.166Z,29.6
2023-02-08T03:21:48.774Z,28.6
2023-02-08T03:24:43.715Z,26.7
2023-02-08T03:27:38.976Z,26.7
2023-02-08T03:30:35.233Z,28
2023-02-08T03:33:43.211Z,25
2023-02-08T03:36:37.340Z,26.8
2023-02-08T03:39:31.651Z,29.3
2023-02-08T03:42:21.875Z,25.8
2023-02-08T03:45:11.693Z,25.9
2023-02-08T03:48:05.021Z,27.5
2023-02-08T03:50:54.627Z,27.1
2023-02-08T03:53:45.320Z,24.1
2023-02-08T03:56:36.167Z,29.7
2023-02-08T03:59:30.866Z,27.8
2023-02-08T04:02:22.637Z,31.8
2023-02-08T04:05:13.443Z,25.5
2023-02-08T04:08:01.286Z,29.4
2023-02-08T04:10:49.461Z,25.6
2023-02-08T04:13:37.213Z,24.5
2023-02-08T04:16:24.480Z,27
2023-02-08T04:19:11.841Z,28.3
2023-02-08T04:21:59.128Z,28.4
2023-02-08T04:24:46.557Z,26.3
2023-02-08T04:27:34.015Z,25.6
2023-02-08T04:30:21.398Z,28.6
2023-02-08T04:33:08.802Z,29
2023-02-08T04:35:57.659Z,29.8
2023-02-08T04:38:45.022Z,28.1
2023-02-08T04:41:32.342Z,29.1
2023-02-08T04:44:19.756Z,32.1
2023-02-08T04:47:07.528Z,32
2023-02-08T04:49:54.898Z,26.2
2023-02-08T04:52:42.705Z,26.9
2023-02-08T04:55:31.211Z,29
2023-02-08T04:58:19.058Z,31.3
2023-02-08T05:01:07.002Z,35.1
2023-02-08T05:03:55.438Z,34
2023-02-08T05:06:43.047Z,32.2
2023-02-08T05:09:31.092Z,35.4
2023-02-08T05:12:19.109Z,33.7
2023-02-08T05:15:06.511Z,32.6
2023-02-08T05:17:54.564Z,31.2
2023-02-08T05:20:42.427Z,30.6
2023-02-08T05:23:30.422Z,32.8
2023-02-08T05:26:17.973Z,31.7
2023-02-08T05:29:05.700Z,33.3
2023-02-08T05:31:53.110Z,32.3
2023-02-08T05:34:40.395Z,31.7
2023-02-08T05:37:28.317Z,30.4
2023-02-08T05:40:15.677Z,31.9
2023-02-08T05:43:03.207Z,26.1
2023-02-08T05:45:50.680Z,29.4
2023-02-08T05:48:38.102Z,28
2023-02-08T05:51:25.744Z,25.2
2023-02-08T05:54:13.066Z,28.6
2023-02-08T05:57:00.540Z,27.2
2023-02-08T05:59:47.880Z,26.4
2023-02-08T06:02:35.521Z,27.1
2023-02-08T06:05:22.883Z,24.6
2023-02-08T06:08:10.228Z,28.2
2023-02-08T06:10:57.483Z,27.9
2023-02-08T06:13:45.222Z,28.9
2023-02-08T06:16:32.943Z,26.7
2023-02-08T06:19:20.353Z,28.1
2023-02-08T06:22:07.705Z,22.8
2023-02-08T06:24:55.093Z,25.2
2023-02-08T06:27:42.775Z,23.7
2023-02-08T06:30:30.721Z,27.2
2023-02-08T06:33:18.745Z,27
2023-02-08T06:36:06.203Z,21.1
2023-02-08T06:38:53.958Z,23.5
2023-02-08T06:41:41.274Z,25.1
2023-02-08T06:44:29.598Z,24
2023-02-08T06:47:16.887Z,25.7
2023-02-08T06:50:04.536Z,27.4
2023-02-08T06:52:52.988Z,26.6
2023-02-08T06:55:40.320Z,24.7
2023-02-08T06:58:29.571Z,26.3
2023-02-08T07:01:17.156Z,23
2023-02-08T07:04:04.812Z,26.5
2023-02-08T07:06:52.124Z,23
2023-02-08T07:09:39.515Z,23.3
2023-02-08T07:12:27.710Z,22.6
2023-02-08T07:15:18.219Z,18.1
2023-02-08T07:18:05.500Z,21.7
2023-02-08T07:20:52.799Z,20
2023-02-08T07:23:40.215Z,17.5
2023-02-08T07:26:28.255Z,16.6
2023-02-08T07:29:15.664Z,17.5
2023-02-08T07:32:03.074Z,16.6
2023-02-08T07:34:52.602Z,16.6
2023-02-08T07:37:39.933Z,15.6
2023-02-08T07:40:27.301Z,15.4
2023-02-08T07:43:14.622Z,15.6
2023-02-08T07:46:02.071Z,13.6
2023-02-08T07:48:52.270Z,12.8
2023-02-08T07:51:39.598Z,13.8
2023-02-08T07:54:26.956Z,13.5
2023-02-08T07:57:14.601Z,12
2023-02-08T08:00:05.831Z,13.3
2023-02-08T08:02:54.645Z,12.7
2023-02-08T08:05:42.850Z,13.9
2023-02-08T08:08:31.090Z,12.3
2023-02-08T08:11:18.651Z,10.8
2023-02-08T08:14:07.091Z,11
2023-02-08T08:16:54.915Z,12.7
2023-02-08T08:19:42.334Z,12.1
2023-02-08T08:22:30.508Z,12.5
2023-02-08T08:25:17.982Z,21.7
2023-02-08T08:28:05.396Z,15.1
2023-02-08T08:30:52.865Z,17.8
2023-02-08T08:33:42.359Z,11.9
2023-02-08T08:36:30.761Z,11
2023-02-08T08:39:18.155Z,12.3
2023-02-08T08:42:05.493Z,12.7
2023-02-08T08:44:52.885Z,13.1
2023-02-08T08:47:40.301Z,10.7
2023-02-08T08:50:28.112Z,11.1
2023-02-08T08:53:15.689Z,11.4
2023-02-08T08:56:03.771Z,12.5
2023-02-08T08:58:52.201Z,11.7
2023-02-08T09:01:39.570Z,12.4
2023-02-08T09:04:27.250Z,13.8
2023-02-08T09:07:14.975Z,12.2
2023-02-08T09:10:02.641Z,11.5
2023-02-08T09:12:51.866Z,10.7
2023-02-08T09:15:39.257Z,10.6
2023-02-08T09:18:27.395Z,11.7
2023-02-08T09:21:14.705Z,9.5
2023-02-08T09:24:04.640Z,11.7
2023-02-08T09:26:52.225Z,12.2
2023-02-08T09:29:39.671Z,10.6
2023-02-08T09:32:26.964Z,12.2
2023-02-08T09:35:18.558Z,12.3
2023-02-08T09:38:05.887Z,11
2023-02-08T09:40:53.400Z,18
2023-02-08T09:43:50.979Z,12.8
2023-02-08T09:46:52.671Z,11.5
2023-02-08T09:49:45.834Z,13.1
2023-02-08T09:52:41.285Z,11.6
2023-02-08T09:55:34.231Z,10.9
2023-02-08T09:58:26.320Z,11.8
2023-02-08T10:01:20.087Z,11.6
2023-02-08T10:04:11.151Z,11.7
2023-02-08T10:07:07.027Z,11.9
2023-02-08T10:09:56.309Z,12.5
2023-02-08T10:12:46.560Z,10.4
2023-02-08T10:15:43.080Z,12.4
2023-02-08T10:18:38.300Z,13.8
2023-02-08T10:21:35.093Z,34.2
2023-02-08T10:24:37.737Z,38.9
2023-02-08T10:27:38.691Z,26
2023-02-08T10:30:41.632Z,16.6
2023-02-08T10:33:38.254Z,12
2023-02-08T10:36:32.842Z,89
2023-02-08T10:39:26.536Z,72.5
2023-02-08T10:42:18.612Z,35.8
2023-02-08T10:45:23.557Z,82.3
2023-02-08T10:48:15.097Z,76
2023-02-08T10:51:14.284Z,150.9
2023-02-08T10:54:06.757Z,29.8
2023-02-08T10:56:58.128Z,28
2023-02-08T10:59:49.095Z,23.6
2023-02-08T11:02:39.784Z,21.5
2023-02-08T11:05:28.874Z,17.5
2023-02-08T11:08:19.332Z,14.2
2023-02-08T11:11:08.531Z,12
2023-02-08T11:13:56.424Z,26.4
2023-02-08T11:16:54.016Z,18.4
2023-02-08T11:19:43.422Z,25.8
2023-02-08T11:22:31.659Z,63.1
2023-02-08T11:25:19.738Z,17.7
2023-02-08T11:28:24.563Z,22.9
2023-02-08T11:31:15.464Z,21.7
2023-02-08T11:34:04.994Z,50.8
2023-02-08T11:36:55.297Z,46
2023-02-08T11:39:44.532Z,28.4
2023-02-08T11:42:36.696Z,52.2
2023-02-08T11:45:28.899Z,48.2
2023-02-08T11:48:18.910Z,26.9
2023-02-08T11:51:10.429Z,24.5
2023-02-08T11:54:08.306Z,33.1
2023-02-08T11:57:18.399Z,38.5
2023-02-08T12:00:08.278Z,47.3
2023-02-08T12:03:05.208Z,39.9
2023-02-08T12:05:59.064Z,15.1
2023-02-08T12:09:08.057Z,43.3
2023-02-08T12:12:09.025Z,38.7
2023-02-08T12:15:09.936Z,16.3
2023-02-08T12:18:09.283Z,14.8
2023-02-08T12:21:12.964Z,38.6
2023-02-08T12:24:04.222Z,19.3
2023-02-08T12:27:02.025Z,76.6
2023-02-08T12:30:05.024Z,92
2023-02-08T12:33:04.729Z,45.2
2023-02-08T12:36:13.965Z,27.1
2023-02-08T12:39:19.922Z,17.3
2023-02-08T12:42:55.672Z,27
2023-02-08T12:45:58.514Z,16.2
2023-02-08T12:49:24.712Z,14
2023-02-08T12:52:40.637Z,12.4
2023-02-08T12:55:33.323Z,27.8
2023-02-08T12:58:23.741Z,15.8
2023-02-08T13:01:15.029Z,13.6
2023-02-08T13:04:06.440Z,13.5
2023-02-08T13:06:58.219Z,20.8
2023-02-08T13:09:53.675Z,19.6
2023-02-08T13:12:48.020Z,19.1
2023-02-08T13:15:40.669Z,18.8
2023-02-08T13:18:33.678Z,17.1
2023-02-08T13:21:28.824Z,21.4
2023-02-08T13:24:26.393Z,17.5
2023-02-08T13:27:19.986Z,18.9
2023-02-08T13:30:08.508Z,19.9
2023-02-08T13:33:03.408Z,14.9
2023-02-08T13:35:59.580Z,15.1
2023-02-08T13:38:47.632Z,13.9
2023-02-08T13:41:35.564Z,14.1
2023-02-08T13:44:33.405Z,15.1
2023-02-08T13:47:23.428Z,11.4
2023-02-08T13:50:14.784Z,14.3
2023-02-08T13:53:36.529Z,12.6
2023-02-08T13:56:57.117Z,12.2
2023-02-08T13:59:44.822Z,13.7
2023-02-08T14:03:06.993Z,21.3
2023-02-08T14:06:07.926Z,80
2023-02-08T14:09:05.861Z,21.6
2023-02-08T14:12:04.920Z,17.1
2023-02-08T14:15:06.207Z,31.8
2023-02-08T14:18:11.195Z,23.8
2023-02-08T14:21:10.630Z,20
2023-02-08T14:24:13.053Z,17.3
2023-02-08T14:27:09.602Z,14.7
2023-02-08T14:30:06.552Z,18.3
2023-02-08T14:33:08.299Z,16.6
2023-02-08T14:36:03.611Z,26.7
2023-02-08T14:39:03.964Z,25.6
2023-02-08T14:42:08.235Z,28.3
2023-02-08T14:44:58.492Z,18.7
2023-02-08T14:47:49.540Z,34.3
2023-02-08T14:50:40.524Z,32.8
2023-02-08T14:53:37.173Z,26.8
2023-02-08T14:56:31.110Z,19.3
2023-02-08T14:59:29.658Z,49.3
2023-02-08T15:02:19.830Z,62.7
2023-02-08T15:05:10.807Z,23.9
2023-02-08T15:08:06.947Z,27.6
2023-02-08T15:10:54.490Z,22.1
2023-02-08T15:13:42.640Z,27.6
2023-02-08T15:16:34.933Z,31
2023-02-08T15:19:29.476Z,26
2023-02-08T15:22:19.471Z,23.3
2023-02-08T15:25:19.247Z,22.2
2023-02-08T15:28:09.954Z,20.7
2023-02-08T15:31:05.040Z,22.8
2023-02-08T15:33:54.853Z,24.5
2023-02-08T15:36:44.865Z,29.7
2023-02-08T15:39:36.335Z,25.2
2023-02-08T15:42:24.399Z,26.4
2023-02-08T15:45:14.502Z,23.5
2023-02-08T15:48:14.975Z,41.1
2023-02-08T15:51:02.340Z,29.4
2023-02-08T15:53:52.740Z,27.9
2023-02-08T15:56:42.645Z,27.9
2023-02-08T15:59:36.607Z,28.5
2023-02-08T16:02:25.264Z,25
2023-02-08T16:05:15.772Z,28.1
2023-02-08T16:08:06.934Z,23.1
2023-02-08T16:11:06.777Z,26.4
2023-02-08T16:13:58.170Z,26
2023-02-08T16:16:48.355Z,23.1
2023-02-08T16:19:38.700Z,24.3
2023-02-08T16:22:36.143Z,26.3
2023-02-08T16:25:24.355Z,26.1
2023-02-08T16:28:20.854Z,26.9
2023-02-08T16:31:13.075Z,29.2
2023-02-08T16:34:06.623Z,31.2
2023-02-08T16:37:02.097Z,38.6
2023-02-08T16:39:52.145Z,30.7
2023-02-08T16:42:41.357Z,30.6
2023-02-08T16:45:29.642Z,31.1
2023-02-08T16:48:18.978Z,30.7
2023-02-08T16:51:19.401Z,35.4
2023-02-08T16:54:09.747Z,33.9
2023-02-08T16:56:59.747Z,37.4
2023-02-08T16:59:47.326Z,37.8
2023-02-08T17:02:34.741Z,35.4
2023-02-08T17:05:22.217Z,32.9
2023-02-08T17:08:12.140Z,28
2023-02-08T17:11:01.825Z,54.3
2023-02-08T17:13:49.611Z,26
2023-02-08T17:16:37.527Z,28.4
2023-02-08T17:19:25.478Z,29.8
2023-02-08T17:22:12.925Z,28.2
2023-02-08T17:25:00.166Z,32.8
2023-02-08T17:27:48.424Z,27.9
2023-02-08T17:30:39.272Z,26.3
2023-02-08T17:33:28.516Z,21.9
2023-02-08T17:36:20.906Z,25.5
2023-02-08T17:39:08.284Z,26.8
2023-02-08T17:41:56.170Z,28.8
2023-02-08T17:44:43.807Z,57.5
2023-02-08T17:47:31.943Z,64.4
2023-02-08T17:50:21.722Z,33.1
2023-02-08T17:53:09.133Z,30.1
2023-02-08T17:55:56.595Z,30.8
2023-02-08T17:58:44.183Z,31.2
2023-02-08T18:01:32.807Z,31.1
2023-02-08T18:04:20.236Z,31.9
2023-02-08T18:07:07.623Z,26.4
2023-02-08T18:09:54.986Z,27.3
2023-02-08T18:12:42.723Z,28.3
2023-02-08T18:15:31.815Z,29.9
2023-02-08T18:18:19.612Z,31.3
2023-02-08T18:21:06.912Z,33
2023-02-08T18:23:55.912Z,35.7
2023-02-08T18:26:46.737Z,32.2
2023-02-08T18:29:34.770Z,31.8
2023-02-08T18:32:22.144Z,33
2023-02-08T18:35:10.279Z,33.7
2023-02-08T18:37:57.735Z,37.6
2023-02-08T18:40:45.177Z,38.2
2023-02-08T18:43:32.481Z,36.9
2023-02-08T18:46:19.922Z,31.8
2023-02-08T18:49:08.866Z,32.7
2023-02-08T18:51:59.918Z,36.4
2023-02-08T18:54:47.475Z,37.7
2023-02-08T18:57:35.775Z,40.1
2023-02-08T19:00:24.517Z,41.3
2023-02-08T19:03:11.855Z,38
2023-02-08T19:05:59.173Z,37.6
2023-02-08T19:08:49.275Z,38.1
2023-02-08T19:11:38.560Z,36.4
2023-02-08T19:14:26.202Z,40.3
2023-02-08T19:17:14.937Z,40
2023-02-08T19:20:02.840Z,36.4
2023-02-08T19:22:52.204Z,37.8
2023-02-08T19:25:39.608Z,36
2023-02-08T19:28:27.087Z,36.4
2023-02-08T19:31:18.662Z,36.1
2023-02-08T19:34:08.217Z,39.1
2023-02-08T19:36:56.595Z,36.9
2023-02-08T19:39:44.244Z,37.5
2023-02-08T19:42:32.043Z,34.9
2023-02-08T19:45:19.303Z,37.4
2023-02-08T19:48:06.780Z,38.5
2023-02-08T19:50:54.145Z,37.1
2023-02-08T19:53:42.966Z,37
2023-02-08T19:56:31.461Z,34.2
2023-02-08T19:59:19.505Z,35.2
2023-02-08T20:02:09.352Z,38.7
2023-02-08T20:04:57.489Z,39.8
2023-02-08T20:07:45.090Z,40.3
2023-02-08T20:10:32.452Z,39.1
2023-02-08T20:13:22.690Z,39.7
2023-02-08T20:16:10.193Z,39.4
2023-02-08T20:18:57.721Z,37.7
2023-02-08T20:21:45.672Z,36.9
2023-02-08T20:24:33.229Z,39.5
2023-02-08T20:27:20.582Z,35.4
2023-02-08T20:30:07.905Z,35
2023-02-08T20:32:56.870Z,33.6
2023-02-08T20:35:44.814Z,33.3
2023-02-08T20:38:32.529Z,35.6
2023-02-08T20:41:19.970Z,37
2023-02-08T20:44:08.636Z,33.9
2023-02-08T20:46:57.326Z,33.7
2023-02-08T20:49:44.940Z,32.6
2023-02-08T20:52:32.575Z,35.6
2023-02-08T20:55:20.064Z,35.9
2023-02-08T20:58:07.413Z,38.3
2023-02-08T21:00:55.171Z,32.5
2023-02-08T21:03:42.914Z,39.1
2023-02-08T21:06:31.992Z,38.7
2023-02-08T21:09:22.260Z,36
2023-02-08T21:12:10.015Z,42.4
2023-02-08T21:14:57.571Z,39.6
2023-02-08T21:17:44.980Z,40
2023-02-08T21:20:32.289Z,37.4
2023-02-08T21:23:22.524Z,37.6
2023-02-08T21:26:10.005Z,36.6
2023-02-08T21:29:00.422Z,37.2
2023-02-08T21:31:50.648Z,37.4
2023-02-08T21:34:41.410Z,39.5
2023-02-08T21:37:29.468Z,38.5
2023-02-08T21:40:18.493Z,36
2023-02-08T21:43:05.948Z,33.9
2023-02-08T21:45:53.362Z,37.2
2023-02-08T21:48:40.725Z,39.3
2023-02-08T21:51:59.722Z,44.6
2023-02-08T21:55:18.712Z,35.8
2023-02-08T21:58:06.199Z,42.1
2023-02-08T22:00:53.462Z,39.6
2023-02-08T22:03:40.750Z,39.1
2023-02-08T22:06:28.172Z,39.1
2023-02-08T22:09:47.199Z,39.6
2023-02-08T22:12:34.778Z,38.3
2023-02-08T22:15:24.873Z,40.2
2023-02-08T22:18:14.285Z,34.3
2023-02-08T22:21:01.832Z,36.7
2023-02-08T22:23:49.574Z,38.8
2023-02-08T22:26:37.444Z,36.7
2023-02-08T22:29:24.842Z,36.3
2023-02-08T22:32:12.426Z,36
2023-02-08T22:35:01.500Z,37.6
2023-02-08T22:37:49.187Z,36.1
2023-02-08T22:40:36.658Z,39.7
2023-02-08T22:43:26.701Z,41.7
2023-02-08T22:46:14.548Z,39.9
2023-02-08T22:49:01.882Z,39.7
2023-02-08T22:51:49.168Z,35.6
2023-02-08T22:54:36.657Z,39.9
2023-02-08T22:57:24.077Z,40.3
2023-02-08T23:00:11.412Z,37.6
2023-02-08T23:03:00.814Z,40.1
2023-02-08T23:05:48.751Z,36.6
2023-02-08T23:08:37.096Z,33
2023-02-08T23:11:24.414Z,39.5
2023-02-08T23:14:11.839Z,38.2
2023-02-08T23:16:59.151Z,39.9
2023-02-08T23:19:47.124Z,40.7
2023-02-08T23:22:37.137Z,39
2023-02-08T23:25:24.442Z,36.5
2023-02-08T23:28:12.103Z,39.4
2023-02-08T23:30:59.589Z,39.2
2023-02-08T23:33:50.492Z,41.4
2023-02-08T23:36:37.971Z,40.8
2023-02-08T23:39:25.489Z,40.2
2023-02-08T23:42:14.324Z,37.3
2023-02-08T23:45:10.012Z,38.7
2023-02-08T23:47:57.535Z,40.9
2023-02-08T23:50:45.627Z,39.6
2023-02-08T23:53:42.351Z,37.9
2023-02-08T23:56:30.918Z,38.6
2023-02-08T23:59:18.247Z,36.7
